createdAt,value
2022-12-23T00:01:19.670Z,6.00
2022-12-23T00:03:49.998Z,6.00
2022-12-23T00:06:21.275Z,6.00
2022-12-23T00:08:58.621Z,6.00
2022-12-23T00:11:30.513Z,6.00
2022-12-23T00:14:19.948Z,6.00
2022-12-23T00:16:51.274Z,6.00
2022-12-23T00:19:21.412Z,6.00
2022-12-23T00:21:51.345Z,6.00
2022-12-23T00:24:23.857Z,6.00
2022-12-23T00:26:53.794Z,6.00
2022-12-23T00:29:23.707Z,6.00
2022-12-23T00:31:53.628Z,6.00
2022-12-23T00:34:23.572Z,5.90
2022-12-23T00:36:53.664Z,5.90
2022-12-23T00:39:38.661Z,5.90
2022-12-23T00:42:32.730Z,5.90
2022-12-23T00:45:15.960Z,5.90
2022-12-23T00:47:59.096Z,5.90
2022-12-23T00:50:29.978Z,6.00
2022-12-23T00:53:00.353Z,5.90
2022-12-23T00:55:33.026Z,5.80
2022-12-23T00:58:02.998Z,5.80
2022-12-23T01:00:45.520Z,5.80
2022-12-23T01:03:29.344Z,5.80
2022-12-23T01:06:01.011Z,5.90
2022-12-23T01:08:31.440Z,5.90
2022-12-23T01:11:05.579Z,6.00
2022-12-23T01:13:35.979Z,6.00
2022-12-23T01:16:11.790Z,5.90
2022-12-23T01:18:45.220Z,5.90
2022-12-23T01:21:15.431Z,6.00
2022-12-23T01:23:45.421Z,6.00
2022-12-23T01:26:17.959Z,6.00
2022-12-23T01:28:47.883Z,6.10
2022-12-23T01:31:17.862Z,6.00
2022-12-23T01:33:47.876Z,6.00
2022-12-23T01:36:17.886Z,6.10
2022-12-23T01:38:47.967Z,6.10
2022-12-23T01:41:37.327Z,6.10
2022-12-23T01:44:22.143Z,6.00
2022-12-23T01:46:52.137Z,6.10
2022-12-23T01:49:22.197Z,6.10
2022-12-23T01:51:52.136Z,6.00
2022-12-23T01:54:22.113Z,6.00
2022-12-23T01:56:54.615Z,6.00
2022-12-23T01:59:36.813Z,6.10
2022-12-23T02:02:19.595Z,6.10
2022-12-23T02:04:50.320Z,6.10
2022-12-23T02:07:33.776Z,6.10
2022-12-23T02:10:04.162Z,6.10
2022-12-23T02:12:49.208Z,6.00
2022-12-23T02:15:47.919Z,6.00
2022-12-23T02:18:43.184Z,6.10
2022-12-23T02:21:25.546Z,6.00
2022-12-23T02:24:25.039Z,6.00
2022-12-23T02:27:17.940Z,4.30
2022-12-23T02:30:10.877Z,6.00
2022-12-23T02:33:05.663Z,6.10
2022-12-23T02:35:46.109Z,6.10
2022-12-23T02:38:22.490Z,6.10
2022-12-23T02:41:01.691Z,6.10
2022-12-23T02:43:38.681Z,6.00
2022-12-23T02:46:12.631Z,6.10
2022-12-23T02:48:50.062Z,6.10
2022-12-23T02:51:21.354Z,6.10
2022-12-23T02:53:55.283Z,6.10
2022-12-23T02:56:28.321Z,6.10
2022-12-23T02:59:07.064Z,6.10
2022-12-23T03:01:38.620Z,6.10
2022-12-23T03:04:11.640Z,6.10
2022-12-23T03:06:44.111Z,6.10
2022-12-23T03:09:20.177Z,6.10
2022-12-23T03:11:59.002Z,6.10
2022-12-23T03:14:45.491Z,6.10
2022-12-23T03:17:41.180Z,6.20
2022-12-23T03:20:21.682Z,6.10
2022-12-23T03:22:57.623Z,6.20
2022-12-23T03:25:34.292Z,6.10
2022-12-23T03:28:10.563Z,6.10
2022-12-23T03:30:43.457Z,6.10
2022-12-23T03:33:18.169Z,6.10
2022-12-23T03:35:55.599Z,6.10
2022-12-23T03:38:26.768Z,6.10
2022-12-23T03:40:59.415Z,6.20
2022-12-23T03:43:33.333Z,6.20
2022-12-23T03:46:09.342Z,6.20
2022-12-23T03:48:42.652Z,6.20
2022-12-23T03:51:19.090Z,6.20
2022-12-23T03:53:54.364Z,6.20
2022-12-23T03:56:31.095Z,6.20
2022-12-23T03:59:04.275Z,6.20
2022-12-23T04:01:58.116Z,6.20
2022-12-23T04:04:31.500Z,6.20
2022-12-23T04:07:09.080Z,6.20
2022-12-23T04:09:39.730Z,6.30
2022-12-23T04:12:10.716Z,6.30
2022-12-23T04:14:46.883Z,6.20
2022-12-23T04:17:17.630Z,6.30
2022-12-23T04:19:48.806Z,6.30
2022-12-23T04:22:22.408Z,6.30
2022-12-23T04:24:52.429Z,6.30
2022-12-23T04:37:26.105Z,6.30
2022-12-23T04:52:30.770Z,6.40
2022-12-23T05:07:35.001Z,6.50
2022-12-23T05:15:05.685Z,6.50
2022-12-23T05:22:39.062Z,6.50
2022-12-23T05:25:10.575Z,6.50
2022-12-23T05:30:12.466Z,6.60
2022-12-23T05:35:13.385Z,6.60
2022-12-23T05:37:45.983Z,6.60
2022-12-23T05:40:21.539Z,5.80
2022-12-23T05:52:57.899Z,6.70
2022-12-23T06:05:30.162Z,6.70
2022-12-23T06:08:02.721Z,6.70
2022-12-23T06:23:09.591Z,6.70
2022-12-23T06:38:14.410Z,6.90
2022-12-23T06:45:49.735Z,6.90
2022-12-23T06:48:20.410Z,6.90
2022-12-23T06:53:23.261Z,7.00
2022-12-23T07:03:24.929Z,7.80
2022-12-23T07:05:55.364Z,7.10
2022-12-23T07:08:27.910Z,7.20
2022-12-23T07:11:01.245Z,7.10
2022-12-23T07:21:03.754Z,7.10
2022-12-23T07:23:36.358Z,7.10
2022-12-23T07:31:08.476Z,7.10
2022-12-23T07:38:42.062Z,7.10
2022-12-23T07:46:13.051Z,7.10
2022-12-23T07:53:46.905Z,7.10
2022-12-23T08:01:20.403Z,7.10
2022-12-23T08:06:21.158Z,7.10
2022-12-23T08:08:53.722Z,7.10
2022-12-23T08:23:58.822Z,7.20
2022-12-23T08:31:32.045Z,7.20
2022-12-23T08:34:03.925Z,7.30
2022-12-23T08:36:36.144Z,7.30
2022-12-23T08:39:11.358Z,7.30
2022-12-23T08:41:44.571Z,7.30
2022-12-23T08:54:22.294Z,7.40
2022-12-23T08:56:52.457Z,7.40
2022-12-23T09:49:50.366Z,7.80
2022-12-23T09:52:27.564Z,7.80
2022-12-23T09:55:00.827Z,7.80
2022-12-23T09:57:38.575Z,7.80
2022-12-23T10:00:16.552Z,7.80
2022-12-23T10:02:58.215Z,7.80
2022-12-23T10:05:37.819Z,7.80
2022-12-23T10:08:15.437Z,7.80
2022-12-23T10:10:52.538Z,7.80
2022-12-23T10:13:29.728Z,7.70
2022-12-23T10:16:03.854Z,7.70
2022-12-23T10:18:46.572Z,7.70
2022-12-23T10:21:21.899Z,7.60
2022-12-23T10:23:55.236Z,7.70
2022-12-23T10:26:32.417Z,7.70
2022-12-23T10:29:16.833Z,7.70
2022-12-23T10:32:03.995Z,7.70
2022-12-23T10:34:44.682Z,7.70
2022-12-23T10:37:24.987Z,7.70
2022-12-23T10:40:06.379Z,7.60
2022-12-23T10:42:44.446Z,7.70
2022-12-23T10:45:42.870Z,7.60
2022-12-23T10:48:25.667Z,7.80
2022-12-23T10:51:02.817Z,7.90
2022-12-23T10:53:38.089Z,7.90
2022-12-23T10:56:09.585Z,7.90
2022-12-23T10:58:46.084Z,7.90
2022-12-23T11:01:26.076Z,7.90
2022-12-23T11:04:04.679Z,8.00
2022-12-23T11:06:38.037Z,7.90
2022-12-23T11:09:09.805Z,8.00
2022-12-23T11:11:59.411Z,8.00
2022-12-23T11:14:37.878Z,8.00
2022-12-23T11:17:16.052Z,8.00
2022-12-23T11:22:25.528Z,8.10
2022-12-23T11:24:55.663Z,8.10
2022-12-23T11:29:58.559Z,8.10
2022-12-23T11:32:31.150Z,8.00
2022-12-23T11:37:39.179Z,8.20
2022-12-23T11:40:27.163Z,8.10
2022-12-23T11:43:02.164Z,8.20
2022-12-23T11:45:38.164Z,8.20
2022-12-23T11:48:09.990Z,8.20
2022-12-23T11:50:42.248Z,8.20
2022-12-23T11:53:16.487Z,8.40
2022-12-23T11:55:58.847Z,8.50
2022-12-23T12:01:09.571Z,8.80
2022-12-23T12:03:49.979Z,8.70
2022-12-23T12:06:21.448Z,8.90
2022-12-23T12:08:53.477Z,8.90
2022-12-23T12:11:28.267Z,8.80
2022-12-23T12:14:02.339Z,9.00
2022-12-23T12:16:52.605Z,8.90
2022-12-23T12:19:27.204Z,9.30
2022-12-23T12:22:03.586Z,9.20
2022-12-23T12:24:39.430Z,9.20
2022-12-23T12:27:11.167Z,9.20
2022-12-23T12:29:47.725Z,9.30
2022-12-23T12:32:38.190Z,9.40
2022-12-23T12:35:11.559Z,9.30
2022-12-23T12:37:45.762Z,9.30
2022-12-23T12:40:23.944Z,9.20
2022-12-23T12:43:02.571Z,12.90
2022-12-23T12:45:41.624Z,9.20
2022-12-23T12:48:29.676Z,9.20
2022-12-23T12:51:06.182Z,9.20
2022-12-23T12:53:39.786Z,9.20
2022-12-23T12:56:18.195Z,9.20
2022-12-23T13:01:31.292Z,9.20
2022-12-23T13:04:55.341Z,9.20
2022-12-23T13:07:37.463Z,9.10
2022-12-23T13:10:18.937Z,9.20
2022-12-23T13:13:00.548Z,9.20
2022-12-23T13:15:36.981Z,9.20
2022-12-23T13:18:26.976Z,9.00
2022-12-23T13:21:04.412Z,8.90
2022-12-23T13:23:45.444Z,8.80
2022-12-23T13:26:28.440Z,8.90
2022-12-23T13:29:07.857Z,8.90
2022-12-23T13:31:47.096Z,8.90
2022-12-23T13:34:32.312Z,9.00
2022-12-23T13:37:13.425Z,8.90
2022-12-23T13:39:59.691Z,8.90
2022-12-23T13:42:33.889Z,8.90
2022-12-23T13:45:07.039Z,8.70
2022-12-23T13:47:49.011Z,9.00
2022-12-23T13:50:25.589Z,8.90
2022-12-23T13:53:16.551Z,8.20
2022-12-23T13:56:13.835Z,8.90
2022-12-23T13:58:44.439Z,8.90
2022-12-23T14:01:35.268Z,8.90
2022-12-23T14:04:34.525Z,8.90
2022-12-23T14:07:07.833Z,8.90
2022-12-23T14:09:40.888Z,8.90
2022-12-23T14:12:22.189Z,12.10
2022-12-23T14:15:19.006Z,8.90
2022-12-23T14:18:02.733Z,8.90
2022-12-23T14:20:47.157Z,8.80
2022-12-23T14:23:33.962Z,8.80
2022-12-23T14:26:25.498Z,10.50
2022-12-23T14:29:13.581Z,8.80
2022-12-23T14:31:45.660Z,8.80
2022-12-23T14:34:31.262Z,8.80
2022-12-23T14:37:31.285Z,8.80
2022-12-23T14:40:21.373Z,8.80
2022-12-23T14:42:51.454Z,8.70
2022-12-23T14:45:47.450Z,8.80
2022-12-23T14:48:47.878Z,8.70
2022-12-23T14:51:26.644Z,8.70
2022-12-23T14:54:15.570Z,8.70
2022-12-23T14:57:03.241Z,8.70
2022-12-23T14:59:41.243Z,8.70
2022-12-23T15:02:24.740Z,8.60
2022-12-23T15:04:58.811Z,8.60
2022-12-23T15:07:33.536Z,8.60
2022-12-23T15:10:06.735Z,8.70
2022-12-23T15:12:39.874Z,8.70
2022-12-23T15:15:16.589Z,9.20
2022-12-23T15:17:49.497Z,8.60
2022-12-23T15:20:23.071Z,8.30
2022-12-23T15:22:53.726Z,8.50
2022-12-23T15:25:26.325Z,8.50
2022-12-23T15:28:01.779Z,8.50
2022-12-23T15:30:38.080Z,8.50
2022-12-23T15:33:43.274Z,8.50
2022-12-23T15:36:05.154Z,8.60
2022-12-23T15:38:40.113Z,8.60
2022-12-23T15:41:18.745Z,8.60
2022-12-23T15:46:26.847Z,8.60
2022-12-23T15:49:02.205Z,8.70
2022-12-23T15:52:07.062Z,8.70
2022-12-23T15:54:30.292Z,8.60
2022-12-23T15:57:02.255Z,8.60
2022-12-23T15:59:35.852Z,8.60
2022-12-23T16:02:40.293Z,8.60
2022-12-23T16:05:06.783Z,8.70
2022-12-23T16:07:40.547Z,12.20
2022-12-23T16:10:17.734Z,8.60
2022-12-23T16:15:29.581Z,8.70
2022-12-23T16:18:14.955Z,8.70
2022-12-23T16:20:48.796Z,8.70
2022-12-23T16:23:19.933Z,8.90
2022-12-23T16:28:24.561Z,8.80
2022-12-23T16:30:56.464Z,10.20
2022-12-23T16:33:36.699Z,8.90
2022-12-23T16:36:25.879Z,8.80
2022-12-23T16:38:59.949Z,8.80
2022-12-23T16:49:04.904Z,8.90
2022-12-23T16:51:38.988Z,9.00
2022-12-23T16:56:41.356Z,9.00
2022-12-23T17:01:43.257Z,9.00
2022-12-23T17:11:49.093Z,9.20
2022-12-23T17:14:21.290Z,9.30
2022-12-23T17:16:52.214Z,9.20
2022-12-23T17:19:29.055Z,9.30
2022-12-23T17:22:05.925Z,9.30
2022-12-23T17:27:12.683Z,9.30
2022-12-23T17:32:15.168Z,9.30
2022-12-23T17:34:45.345Z,8.90
2022-12-23T17:37:20.805Z,9.40
2022-12-23T17:52:29.625Z,9.40
2022-12-23T18:07:36.113Z,9.70
2022-12-23T18:12:38.735Z,9.70
2022-12-23T18:20:18.147Z,9.70
2022-12-23T18:22:52.954Z,9.70
2022-12-23T18:25:25.286Z,9.60
2022-12-23T18:27:56.501Z,9.70
2022-12-23T18:35:30.688Z,9.80
2022-12-23T18:45:37.812Z,9.90
2022-12-23T18:48:09.847Z,9.90
2022-12-23T18:50:41.511Z,9.80
2022-12-23T18:53:23.654Z,9.90
2022-12-23T18:55:54.812Z,9.90
2022-12-23T18:58:25.701Z,9.90
2022-12-23T19:01:03.571Z,9.90
2022-12-23T19:03:35.077Z,10.00
2022-12-23T19:06:09.348Z,10.00
2022-12-23T19:08:41.986Z,10.00
2022-12-23T19:11:15.951Z,10.00
2022-12-23T19:13:46.065Z,10.00
2022-12-23T19:16:16.501Z,10.10
2022-12-23T19:18:47.458Z,10.20
2022-12-23T19:21:18.098Z,7.60
2022-12-23T19:23:50.613Z,10.20
2022-12-23T19:26:20.635Z,10.20
2022-12-23T19:28:50.944Z,10.20
2022-12-23T19:31:23.107Z,10.20
2022-12-23T19:33:53.196Z,10.20
2022-12-23T19:36:25.458Z,10.10
2022-12-23T19:38:59.383Z,10.30
2022-12-23T19:41:29.385Z,10.30
2022-12-23T19:43:59.412Z,10.30
2022-12-23T19:46:29.511Z,10.30
2022-12-23T19:48:59.476Z,10.30
2022-12-23T19:51:29.534Z,10.30
2022-12-23T19:54:02.099Z,10.30
2022-12-23T19:56:32.560Z,10.30
2022-12-23T19:59:02.503Z,10.20
2022-12-23T20:01:32.632Z,10.30
2022-12-23T20:04:02.717Z,10.30
2022-12-23T20:06:35.284Z,10.20
2022-12-23T20:09:08.738Z,10.20
2022-12-23T20:11:41.471Z,10.30
2022-12-23T20:14:12.404Z,10.20
2022-12-23T20:16:44.109Z,10.10
2022-12-23T20:19:14.639Z,10.10
2022-12-23T20:21:45.499Z,10.00
2022-12-23T20:24:18.993Z,10.00
2022-12-23T20:26:48.951Z,10.00
2022-12-23T20:29:18.954Z,10.00
2022-12-23T20:31:49.012Z,9.90
2022-12-23T20:34:20.133Z,9.90
2022-12-23T20:36:50.184Z,9.90
2022-12-23T20:39:22.762Z,9.90
2022-12-23T20:41:52.827Z,9.90
2022-12-23T20:44:38.193Z,9.90
2022-12-23T20:47:09.112Z,9.90
2022-12-23T20:49:39.058Z,9.90
2022-12-23T20:52:09.077Z,9.70
2022-12-23T20:54:41.603Z,9.80
2022-12-23T20:57:11.600Z,9.80
2022-12-23T20:59:41.576Z,9.80
2022-12-23T21:02:14.786Z,9.70
2022-12-23T21:04:45.324Z,9.70
2022-12-23T21:07:15.355Z,9.70
2022-12-23T21:09:48.026Z,9.70
2022-12-23T21:12:18.172Z,9.70
2022-12-23T21:14:48.135Z,9.70
2022-12-23T21:17:18.095Z,9.70
2022-12-23T21:19:48.084Z,9.70
2022-12-23T21:22:18.124Z,9.50
2022-12-23T21:24:50.634Z,9.60
2022-12-23T21:27:20.617Z,9.60
2022-12-23T21:29:50.521Z,9.60
2022-12-23T21:32:20.462Z,9.60
2022-12-23T21:34:50.462Z,9.60
2022-12-23T21:37:20.435Z,9.60
2022-12-23T21:39:52.966Z,9.60
2022-12-23T21:42:22.893Z,9.60
2022-12-23T21:44:52.815Z,9.50
2022-12-23T21:47:22.753Z,9.50
2022-12-23T21:49:52.711Z,9.50
2022-12-23T21:52:22.662Z,9.40
2022-12-23T21:54:55.171Z,9.40
2022-12-23T21:57:25.204Z,9.50
2022-12-23T21:59:55.364Z,9.60
2022-12-23T22:02:25.419Z,9.60
2022-12-23T22:04:55.375Z,10.50
2022-12-23T22:07:25.279Z,9.60
2022-12-23T22:09:57.778Z,9.60
2022-12-23T22:12:27.844Z,9.60
2022-12-23T22:14:57.889Z,9.50
2022-12-23T22:22:28.526Z,9.50
2022-12-23T22:25:01.125Z,9.30
2022-12-23T22:40:05.212Z,9.00
2022-12-23T22:42:36.208Z,9.10
2022-12-23T22:55:11.662Z,8.90
2022-12-23T23:00:14.444Z,8.80
2022-12-23T23:02:44.713Z,8.70
2022-12-23T23:05:14.866Z,8.70
2022-12-23T23:10:17.866Z,8.60
2022-12-23T23:15:20.450Z,8.60
2022-12-23T23:25:25.066Z,8.60
2022-12-23T23:30:25.333Z,8.70
2022-12-23T23:37:55.823Z,8.70
2022-12-23T23:40:28.400Z,8.60
2022-12-23T23:48:00.326Z,8.50
2022-12-23T23:50:30.318Z,8.40
2022-12-23T23:55:33.456Z,8.60
